Startpagina
METAR-TAF:

METAR-TAF

Vliegvelden :

P11-b, Nederland

Productieplatform

breedte: 52-21-36N, lengte: 3-20-30E, hoogte: 24 m

Actueel weer

Dit bericht is 28 minuten geleden gemaakt, om 06:25 UTC
Wind 16 kt uit het noordwesten, variërend tussen het westen en het noorden
Temperatuur 17°C
Vochtigheid 77%
Druk 1013 hPa
Zicht 10 km of meer
Verspreide wolken op 1400 ft
Gebroken wolken op 1700 ft
Gebroken wolken op 2200 ft

METAR: EHPG 250625Z AUTO 32016KT 270V360 9999 SCT014 BKN017 BKN022 17/13 Q1013

Tijdstip: 08:53 (06:53 UTC)


TAF: ontbreekt

Waarnemingen en weersverwachtingen van meer dan 4000 vliegvelden (METAR en TAF).

De beschikbare stations zijn de gele en rode punten op de kaart.

Ga met uw muis naar het station om de naam te zien.

Klik dan om waarnemingen en weersverwachtingen te zien.

kaart wijzigen: klik op de groene knoppen met een zwart kruis om in te zoomen, op de groene knop met een streepje om uit te zoomen of op de groene pijlen voor aangrenzende kaarten.


METAR-TAF: